PWSweather.com
Personal Weather Stations
Station Observations
SHAHALMS1
Eftra, Falkenberg, HA

EftraFalkenberg, HA

Lat: 56.85, Lon: 12.65

Elevation: 140

Station Type:

http://hem.passagen.se/risarp101

High Low Average
Temperature 58.6°F14.8°C 42.8°F6.0°C 50.0°F10.0°C
Dew Point 49.5°F9.7°C 37.1°F2.8°C 42.9°F6.1°C
Winds 5.9 mph 9.5 kmh Calm Calm 3.0 mph SW4.8 kmh SW
Wind Gusts 16.8 mph27.0 kmh -- 8.0 mph12.9 kmh
Humidity 85% 68% 77%
Pressure 30.01 in1016.3 mb 29.86 in1011.2 mb -
Precipitation 0.00 in0.0 mm - -
Hour Temp Dew Point Humidity Winds Wind Gusts Pressure Precip Precip Rate Daily Precip Total
12:00 AM 49.8°F9.9°C 41.2°F5.1°C 72% 4.3 mph W6.9 kmh W 13.6 mph21.9 kmh 29.92 in1013.2 mb 0.00 in0.0 mm 0.00 in0.0 mm 0.00 in0.0 mm
12:15 AM 49.8°F9.9°C 41.2°F5.1°C 72% 3.3 mph W5.3 kmh W 10.0 mph16.1 kmh 29.89 in1012.2 mb 0.00 in0.0 mm 0.00 in0.0 mm 0.00 in0.0 mm
12:30 AM 50.0°F10.0°C 41.0°F5.0°C 71% 4.2 mph W6.8 kmh W 12.2 mph19.6 kmh 29.92 in1013.2 mb 0.00 in0.0 mm 0.00 in0.0 mm 0.00 in0.0 mm
12:45 AM 49.8°F9.9°C 40.8°F4.9°C 71% 4.5 mph WNW7.2 kmh WNW 12.5 mph20.1 kmh 29.92 in1013.2 mb 0.00 in0.0 mm 0.00 in0.0 mm 0.00 in0.0 mm
01:00 AM 49.6°F9.8°C 40.3°F4.6°C 70% 4.5 mph W7.2 kmh W 15.0 mph24.1 kmh 29.92 in1013.2 mb 0.00 in0.0 mm 0.00 in0.0 mm 0.00 in0.0 mm
01:15 AM 49.5°F9.7°C 40.1°F4.5°C 70% 4.2 mph W6.8 kmh W 9.7 mph15.6 kmh 29.92 in1013.2 mb 0.00 in0.0 mm 0.00 in0.0 mm 0.00 in0.0 mm
01:30 AM 49.5°F9.7°C 40.1°F4.5°C 70% 4.8 mph W7.7 kmh W 12.9 mph20.8 kmh 29.89 in1012.2 mb 0.00 in0.0 mm 0.00 in0.0 mm 0.00 in0.0 mm
01:45 AM 48.7°F9.3°C 39.0°F3.9°C 69% 4.3 mph W6.9 kmh W 10.0 mph16.1 kmh 29.92 in1013.2 mb 0.00 in0.0 mm 0.00 in0.0 mm 0.00 in0.0 mm
02:00 AM 48.2°F9.0°C 38.9°F3.8°C 70% 4.3 mph W6.9 kmh W 9.7 mph15.6 kmh 29.92 in1013.2 mb 0.00 in0.0 mm 0.00 in0.0 mm 0.00 in0.0 mm
02:15 AM 48.2°F9.0°C 38.9°F3.8°C 70% 3.1 mph W5.0 kmh W 9.3 mph15.0 kmh 29.89 in1012.2 mb 0.00 in0.0 mm 0.00 in0.0 mm 0.00 in0.0 mm
02:30 AM 47.8°F8.8°C 38.5°F3.6°C 70% 1.9 mph W3.1 kmh W 6.4 mph10.3 kmh 29.89 in1012.2 mb 0.00 in0.0 mm 0.00 in0.0 mm 0.00 in0.0 mm
02:45 AM 47.8°F8.8°C 38.9°F3.8°C 71% 1.3 mph W2.1 kmh W 6.1 mph9.8 kmh 29.89 in1012.2 mb 0.00 in0.0 mm 0.00 in0.0 mm 0.00 in0.0 mm
03:00 AM 47.7°F8.7°C 39.1°F3.9°C 72% 0.1 mph W0.2 kmh W 2.1 mph3.4 kmh 29.86 in1011.2 mb 0.00 in0.0 mm 0.00 in0.0 mm 0.00 in0.0 mm
03:15 AM 47.5°F8.6°C 39.3°F4.1°C 73% Calm Calm -- 29.86 in1011.2 mb 0.00 in0.0 mm 0.00 in0.0 mm 0.00 in0.0 mm
03:30 AM 47.5°F8.6°C 39.6°F4.2°C 74% 1.2 mph W1.9 kmh W 5.0 mph8.0 kmh 29.86 in1011.2 mb 0.00 in0.0 mm 0.00 in0.0 mm 0.00 in0.0 mm
03:45 AM 47.8°F8.8°C 40.3°F4.6°C 75% 1.6 mph W2.6 kmh W 5.4 mph8.7 kmh 29.86 in1011.2 mb 0.00 in0.0 mm 0.00 in0.0 mm 0.00 in0.0 mm
04:00 AM 48.2°F9.0°C 40.6°F4.8°C 75% 1.5 mph W2.4 kmh W 5.0 mph8.0 kmh 29.86 in1011.2 mb 0.00 in0.0 mm 0.00 in0.0 mm 0.00 in0.0 mm
04:15 AM 48.7°F9.3°C 41.5°F5.3°C 76% 3.5 mph W5.6 kmh W 8.9 mph14.3 kmh 29.86 in1011.2 mb 0.00 in0.0 mm 0.00 in0.0 mm 0.00 in0.0 mm
04:30 AM 48.9°F9.4°C 42.0°F5.6°C 77% 2.8 mph WSW4.5 kmh WSW 6.4 mph10.3 kmh 29.86 in1011.2 mb 0.00 in0.0 mm 0.00 in0.0 mm 0.00 in0.0 mm
04:45 AM 48.7°F9.3°C 41.8°F5.4°C 77% 3.8 mph W6.1 kmh W 7.9 mph12.7 kmh 29.86 in1011.2 mb 0.00 in0.0 mm 0.00 in0.0 mm 0.00 in0.0 mm
05:00 AM 48.9°F9.4°C 42.0°F5.6°C 77% 3.1 mph W5.0 kmh W 7.9 mph12.7 kmh 29.86 in1011.2 mb 0.00 in0.0 mm 0.00 in0.0 mm 0.00 in0.0 mm
05:15 AM 48.9°F9.4°C 42.4°F5.8°C 78% 3.4 mph W5.5 kmh W 16.8 mph27.0 kmh 29.86 in1011.2 mb 0.00 in0.0 mm 0.00 in0.0 mm 0.00 in0.0 mm
05:30 AM 49.3°F9.6°C 42.7°F5.9°C 78% 4.9 mph W7.9 kmh W 9.3 mph15.0 kmh 29.86 in1011.2 mb 0.00 in0.0 mm 0.00 in0.0 mm 0.00 in0.0 mm
05:46 AM 49.5°F9.7°C 43.2°F6.2°C 79% 5.5 mph W8.9 kmh W 11.5 mph18.5 kmh 29.89 in1012.2 mb 0.00 in0.0 mm 0.00 in0.0 mm 0.00 in0.0 mm
06:00 AM 49.1°F9.5°C 42.9°F6.1°C 79% 3.7 mph W6.0 kmh W 6.4 mph10.3 kmh 29.89 in1012.2 mb 0.00 in0.0 mm 0.00 in0.0 mm 0.00 in0.0 mm
06:15 AM 49.1°F9.5°C 43.2°F6.2°C 80% 5.1 mph W8.2 kmh W 12.9 mph20.8 kmh 29.89 in1012.2 mb 0.00 in0.0 mm 0.00 in0.0 mm 0.00 in0.0 mm
06:30 AM 48.7°F9.3°C 42.8°F6.0°C 80% 5.5 mph W8.9 kmh W 10.0 mph16.1 kmh 29.89 in1012.2 mb 0.00 in0.0 mm 0.00 in0.0 mm 0.00 in0.0 mm
06:45 AM 48.6°F9.2°C 43.0°F6.1°C 81% 5.6 mph W9.0 kmh W 11.5 mph18.5 kmh 29.89 in1012.2 mb 0.00 in0.0 mm 0.00 in0.0 mm 0.00 in0.0 mm
07:00 AM 48.4°F9.1°C 42.8°F6.0°C 81% 5.6 mph W9.0 kmh W 10.4 mph16.7 kmh 29.89 in1012.2 mb 0.00 in0.0 mm 0.00 in0.0 mm 0.00 in0.0 mm
07:15 AM 48.4°F9.1°C 42.8°F6.0°C 81% 3.0 mph WSW4.8 kmh WSW 7.9 mph12.7 kmh 29.89 in1012.2 mb 0.00 in0.0 mm 0.00 in0.0 mm 0.00 in0.0 mm
07:30 AM 48.7°F9.3°C 43.5°F6.4°C 82% 4.0 mph WSW6.4 kmh WSW 10.0 mph16.1 kmh 29.89 in1012.2 mb 0.00 in0.0 mm 0.00 in0.0 mm 0.00 in0.0 mm
07:45 AM 49.1°F9.5°C 43.8°F6.6°C 82% 4.8 mph WSW7.7 kmh WSW 8.9 mph14.3 kmh 29.86 in1011.2 mb 0.00 in0.0 mm 0.00 in0.0 mm 0.00 in0.0 mm
08:00 AM 49.3°F9.6°C 44.3°F6.8°C 83% 4.7 mph SSW7.6 kmh SSW 10.0 mph16.1 kmh 29.86 in1011.2 mb 0.00 in0.0 mm 0.00 in0.0 mm 0.00 in0.0 mm
08:15 AM 49.5°F9.7°C 44.5°F6.9°C 83% 5.3 mph W8.5 kmh W 10.4 mph16.7 kmh 29.89 in1012.2 mb 0.00 in0.0 mm 0.00 in0.0 mm 0.00 in0.0 mm
08:30 AM 50.0°F10.0°C 45.4°F7.4°C 84% 2.8 mph WNW4.5 kmh WNW 7.9 mph12.7 kmh 29.86 in1011.2 mb 0.00 in0.0 mm 0.00 in0.0 mm 0.00 in0.0 mm
08:45 AM 50.5°F10.3°C 46.2°F7.9°C 85% 3.3 mph W5.3 kmh W 6.4 mph10.3 kmh 29.89 in1012.2 mb 0.00 in0.0 mm 0.00 in0.0 mm 0.00 in0.0 mm
09:00 AM 50.9°F10.5°C 46.6°F8.1°C 85% 4.1 mph W6.6 kmh W 10.0 mph16.1 kmh 29.92 in1013.2 mb 0.00 in0.0 mm 0.00 in0.0 mm 0.00 in0.0 mm
09:15 AM 51.4°F10.8°C 47.1°F8.4°C 85% 3.1 mph WNW5.0 kmh WNW 6.8 mph10.9 kmh 29.92 in1013.2 mb 0.00 in0.0 mm 0.00 in0.0 mm 0.00 in0.0 mm
09:30 AM 52.5°F11.4°C 48.1°F8.9°C 85% 2.8 mph WNW4.5 kmh WNW 9.7 mph15.6 kmh 29.92 in1013.2 mb 0.00 in0.0 mm 0.00 in0.0 mm 0.00 in0.0 mm
09:45 AM 52.5°F11.4°C 47.8°F8.8°C 84% 5.4 mph WNW8.7 kmh WNW 15.4 mph24.8 kmh 29.92 in1013.2 mb 0.00 in0.0 mm 0.00 in0.0 mm 0.00 in0.0 mm
10:00 AM 53.1°F11.7°C 48.0°F8.9°C 83% 4.6 mph WNW7.4 kmh WNW 10.0 mph16.1 kmh 29.92 in1013.2 mb 0.00 in0.0 mm 0.00 in0.0 mm 0.00 in0.0 mm
10:15 AM 53.1°F11.7°C 47.7°F8.7°C 82% 3.9 mph WNW6.3 kmh WNW 10.4 mph16.7 kmh 29.92 in1013.2 mb 0.00 in0.0 mm 0.00 in0.0 mm 0.00 in0.0 mm
10:30 AM 53.4°F11.9°C 48.1°F8.9°C 82% 3.8 mph WNW6.1 kmh WNW 9.7 mph15.6 kmh 29.95 in1014.2 mb 0.00 in0.0 mm 0.00 in0.0 mm 0.00 in0.0 mm
10:45 AM 53.8°F12.1°C 48.1°F8.9°C 81% 3.9 mph W6.3 kmh W 10.0 mph16.1 kmh 29.89 in1012.2 mb 0.00 in0.0 mm 0.00 in0.0 mm 0.00 in0.0 mm
11:00 AM 53.8°F12.1°C 48.1°F8.9°C 81% 4.0 mph WNW6.4 kmh WNW 14.3 mph23.0 kmh 29.92 in1013.2 mb 0.00 in0.0 mm 0.00 in0.0 mm 0.00 in0.0 mm
11:15 AM 54.5°F12.5°C 48.8°F9.3°C 81% 3.2 mph NW5.1 kmh NW 8.6 mph13.8 kmh 29.92 in1013.2 mb 0.00 in0.0 mm 0.00 in0.0 mm 0.00 in0.0 mm
11:30 AM 55.4°F13.0°C 49.3°F9.6°C 80% 4.6 mph NW7.4 kmh NW 12.5 mph20.1 kmh 29.92 in1013.2 mb 0.00 in0.0 mm 0.00 in0.0 mm 0.00 in0.0 mm
11:45 AM 56.3°F13.5°C 49.5°F9.7°C 78% 4.8 mph WNW7.7 kmh WNW 11.5 mph18.5 kmh 29.89 in1012.2 mb 0.00 in0.0 mm 0.00 in0.0 mm 0.00 in0.0 mm
12:00 PM 55.0°F12.8°C 46.5°F8.1°C 73% 5.3 mph NW8.5 kmh NW 10.0 mph16.1 kmh 29.89 in1012.2 mb 0.00 in0.0 mm 0.00 in0.0 mm 0.00 in0.0 mm
12:15 PM 56.1°F13.4°C 47.6°F8.7°C 73% 5.3 mph NW8.5 kmh NW 12.2 mph19.6 kmh 29.89 in1012.2 mb 0.00 in0.0 mm 0.00 in0.0 mm 0.00 in0.0 mm
12:30 PM 57.4°F14.1°C 49.2°F9.6°C 74% 5.2 mph W8.4 kmh W 11.8 mph19.0 kmh 29.92 in1013.2 mb 0.00 in0.0 mm 0.00 in0.0 mm 0.00 in0.0 mm
12:45 PM 58.1°F14.5°C 49.5°F9.7°C 73% 4.7 mph WNW7.6 kmh WNW 16.1 mph25.9 kmh 29.92 in1013.2 mb 0.00 in0.0 mm 0.00 in0.0 mm 0.00 in0.0 mm
01:00 PM 57.7°F14.3°C 48.0°F8.9°C 70% 5.3 mph WNW8.5 kmh WNW 12.5 mph20.1 kmh 29.95 in1014.2 mb 0.00 in0.0 mm 0.00 in0.0 mm 0.00 in0.0 mm
01:15 PM 58.1°F14.5°C 48.4°F9.1°C 70% 5.4 mph WNW8.7 kmh WNW 15.0 mph24.1 kmh 29.95 in1014.2 mb 0.00 in0.0 mm 0.00 in0.0 mm 0.00 in0.0 mm
01:30 PM 58.6°F14.8°C 48.9°F9.4°C 70% 5.8 mph W9.3 kmh W 14.0 mph22.5 kmh 29.92 in1013.2 mb 0.00 in0.0 mm 0.00 in0.0 mm 0.00 in0.0 mm
01:45 PM 58.6°F14.8°C 48.9°F9.4°C 70% 5.9 mph W9.5 kmh W 12.5 mph20.1 kmh 29.95 in1014.2 mb 0.00 in0.0 mm 0.00 in0.0 mm 0.00 in0.0 mm
02:00 PM 57.2°F14.0°C 46.7°F8.2°C 68% 4.8 mph W7.7 kmh W 13.6 mph21.9 kmh 29.95 in1014.2 mb 0.00 in0.0 mm 0.00 in0.0 mm 0.00 in0.0 mm
02:15 PM 56.1°F13.4°C 46.1°F7.8°C 69% 4.5 mph WNW7.2 kmh WNW 10.4 mph16.7 kmh 29.95 in1014.2 mb 0.00 in0.0 mm 0.00 in0.0 mm 0.00 in0.0 mm
02:30 PM 54.9°F12.7°C 44.9°F7.2°C 69% 3.8 mph WNW6.1 kmh WNW 11.8 mph19.0 kmh 29.95 in1014.2 mb 0.00 in0.0 mm 0.00 in0.0 mm 0.00 in0.0 mm
02:45 PM 54.3°F12.4°C 44.7°F7.1°C 70% 2.1 mph WNW3.4 kmh WNW 9.3 mph15.0 kmh 29.95 in1014.2 mb 0.00 in0.0 mm 0.00 in0.0 mm 0.00 in0.0 mm
03:00 PM 54.0°F12.2°C 44.4°F6.9°C 70% 4.9 mph NW7.9 kmh NW 9.7 mph15.6 kmh 29.95 in1014.2 mb 0.00 in0.0 mm 0.00 in0.0 mm 0.00 in0.0 mm
03:15 PM 54.1°F12.3°C 45.3°F7.4°C 72% 4.4 mph WNW7.1 kmh WNW 11.5 mph18.5 kmh 29.95 in1014.2 mb 0.00 in0.0 mm 0.00 in0.0 mm 0.00 in0.0 mm
03:30 PM 54.9°F12.7°C 45.6°F7.6°C 71% 5.0 mph NW8.0 kmh NW 9.7 mph15.6 kmh 29.95 in1014.2 mb 0.00 in0.0 mm 0.00 in0.0 mm 0.00 in0.0 mm
03:45 PM 54.5°F12.5°C 44.9°F7.2°C 70% 5.1 mph WNW8.2 kmh WNW 15.4 mph24.8 kmh 29.95 in1014.2 mb 0.00 in0.0 mm 0.00 in0.0 mm 0.00 in0.0 mm
04:00 PM 54.3°F12.4°C 44.7°F7.1°C 70% 3.5 mph W5.6 kmh W 10.4 mph16.7 kmh 29.95 in1014.2 mb 0.00 in0.0 mm 0.00 in0.0 mm 0.00 in0.0 mm
04:15 PM 53.2°F11.8°C 43.7°F6.5°C 70% 1.6 mph WNW2.6 kmh WNW 6.4 mph10.3 kmh 29.95 in1014.2 mb 0.00 in0.0 mm 0.00 in0.0 mm 0.00 in0.0 mm
04:30 PM 52.2°F11.2°C 42.7°F5.9°C 70% 1.1 mph WNW1.8 kmh WNW 7.5 mph12.1 kmh 29.95 in1014.2 mb 0.00 in0.0 mm 0.00 in0.0 mm 0.00 in0.0 mm
04:45 PM 50.9°F10.5°C 41.8°F5.4°C 71% 1.1 mph W1.8 kmh W 5.4 mph8.7 kmh 29.95 in1014.2 mb 0.00 in0.0 mm 0.00 in0.0 mm 0.00 in0.0 mm
05:00 PM 49.6°F9.8°C 41.0°F5.0°C 72% 0.6 mph W1.0 kmh W 3.9 mph6.3 kmh 29.95 in1014.2 mb 0.00 in0.0 mm 0.00 in0.0 mm 0.00 in0.0 mm
05:15 PM 48.7°F9.3°C 40.8°F4.9°C 74% 0.2 mph W0.3 kmh W 4.3 mph6.9 kmh 29.95 in1014.2 mb 0.00 in0.0 mm 0.00 in0.0 mm 0.00 in0.0 mm
05:30 PM 48.2°F9.0°C 40.6°F4.8°C 75% 0.7 mph W1.1 kmh W 4.3 mph6.9 kmh 29.98 in1015.2 mb 0.00 in0.0 mm 0.00 in0.0 mm 0.00 in0.0 mm
05:45 PM 47.8°F8.8°C 40.6°F4.8°C 76% 0.7 mph W1.1 kmh W 5.4 mph8.7 kmh 29.98 in1015.2 mb 0.00 in0.0 mm 0.00 in0.0 mm 0.00 in0.0 mm
06:00 PM 47.7°F8.7°C 40.8°F4.9°C 77% Calm Calm -- 29.98 in1015.2 mb 0.00 in0.0 mm 0.00 in0.0 mm 0.00 in0.0 mm
06:15 PM 47.7°F8.7°C 41.1°F5.1°C 78% Calm Calm -- 29.98 in1015.2 mb 0.00 in0.0 mm 0.00 in0.0 mm 0.00 in0.0 mm
06:30 PM 47.5°F8.6°C 41.3°F5.2°C 79% Calm Calm -- 29.98 in1015.2 mb 0.00 in0.0 mm 0.00 in0.0 mm 0.00 in0.0 mm
06:45 PM 47.3°F8.5°C 41.1°F5.1°C 79% Calm Calm -- 29.98 in1015.2 mb 0.00 in0.0 mm 0.00 in0.0 mm 0.00 in0.0 mm
07:00 PM 47.1°F8.4°C 40.9°F4.9°C 79% Calm Calm -- 29.98 in1015.2 mb 0.00 in0.0 mm 0.00 in0.0 mm 0.00 in0.0 mm
07:15 PM 47.1°F8.4°C 41.3°F5.2°C 80% Calm Calm -- 29.98 in1015.2 mb 0.00 in0.0 mm 0.00 in0.0 mm 0.00 in0.0 mm
07:30 PM 46.9°F8.3°C 41.1°F5.1°C 80% Calm Calm -- 29.98 in1015.2 mb 0.00 in0.0 mm 0.00 in0.0 mm 0.00 in0.0 mm
07:45 PM 46.6°F8.1°C 40.7°F4.8°C 80% Calm Calm -- 29.98 in1015.2 mb 0.00 in0.0 mm 0.00 in0.0 mm 0.00 in0.0 mm
08:00 PM 46.4°F8.0°C 40.9°F4.9°C 81% Calm Calm -- 29.98 in1015.2 mb 0.00 in0.0 mm 0.00 in0.0 mm 0.00 in0.0 mm
08:15 PM 46.4°F8.0°C 40.9°F4.9°C 81% 0.3 mph S0.5 kmh S 3.6 mph5.8 kmh 30.01 in1016.3 mb 0.00 in0.0 mm 0.00 in0.0 mm 0.00 in0.0 mm
08:30 PM 46.4°F8.0°C 40.9°F4.9°C 81% Calm Calm -- 29.98 in1015.2 mb 0.00 in0.0 mm 0.00 in0.0 mm 0.00 in0.0 mm
08:45 PM 46.4°F8.0°C 40.9°F4.9°C 81% Calm Calm -- 30.01 in1016.3 mb 0.00 in0.0 mm 0.00 in0.0 mm 0.00 in0.0 mm
09:00 PM 46.4°F8.0°C 40.9°F4.9°C 81% 0.1 mph S0.2 kmh S 1.8 mph2.9 kmh 29.98 in1015.2 mb 0.00 in0.0 mm 0.00 in0.0 mm 0.00 in0.0 mm
09:15 PM 46.2°F7.9°C 40.7°F4.8°C 81% 0.1 mph W0.2 kmh W 4.3 mph6.9 kmh 30.01 in1016.3 mb 0.00 in0.0 mm 0.00 in0.0 mm 0.00 in0.0 mm
09:30 PM 46.4°F8.0°C 40.9°F4.9°C 81% 0.1 mph WNW0.2 kmh WNW 5.4 mph8.7 kmh 30.01 in1016.3 mb 0.00 in0.0 mm 0.00 in0.0 mm 0.00 in0.0 mm
09:46 PM 46.4°F8.0°C 40.9°F4.9°C 81% Calm Calm -- 30.01 in1016.3 mb 0.00 in0.0 mm 0.00 in0.0 mm 0.00 in0.0 mm
10:00 PM 45.5°F7.5°C 39.4°F4.1°C 79% 0.5 mph E0.8 kmh E 3.6 mph5.8 kmh 30.01 in1016.3 mb 0.00 in0.0 mm 0.00 in0.0 mm 0.00 in0.0 mm
10:15 PM 44.6°F7.0°C 38.5°F3.6°C 79% Calm Calm -- 29.98 in1015.2 mb 0.00 in0.0 mm 0.00 in0.0 mm 0.00 in0.0 mm
10:30 PM 43.9°F6.6°C 38.1°F3.4°C 80% Calm Calm -- 29.98 in1015.2 mb 0.00 in0.0 mm 0.00 in0.0 mm 0.00 in0.0 mm
10:45 PM 43.7°F6.5°C 37.9°F3.3°C 80% Calm Calm -- 29.98 in1015.2 mb 0.00 in0.0 mm 0.00 in0.0 mm 0.00 in0.0 mm
11:00 PM 43.0°F6.1°C 37.2°F2.9°C 80% Calm Calm -- 30.01 in1016.3 mb 0.00 in0.0 mm 0.00 in0.0 mm 0.00 in0.0 mm
11:15 PM 43.0°F6.1°C 37.5°F3.1°C 81% Calm Calm -- 29.98 in1015.2 mb 0.00 in0.0 mm 0.00 in0.0 mm 0.00 in0.0 mm
11:30 PM 43.0°F6.1°C 37.5°F3.1°C 81% Calm Calm -- 29.98 in1015.2 mb 0.00 in0.0 mm 0.00 in0.0 mm 0.00 in0.0 mm
11:45 PM 42.8°F6.0°C 37.1°F2.8°C 80% 1.2 mph E1.9 kmh E 5.4 mph8.7 kmh 29.98 in1015.2 mb 0.00 in0.0 mm 0.00 in0.0 mm 0.00 in0.0 mm